sensor_id;sensor_type;location;lat;lon;timestamp;P1;durP1;ratioP1;P2;durP2;ratioP2
25331;SDS011;13284;52.748;13.452;2023-06-01T00:02:11;3.17;;;2.00;;
25331;SDS011;13284;52.748;13.452;2023-06-01T00:04:37;4.20;;;1.90;;
25331;SDS011;13284;52.748;13.452;2023-06-01T00:07:05;2.20;;;1.60;;
25331;SDS011;13284;52.748;13.452;2023-06-01T00:09:31;3.07;;;1.83;;
25331;SDS011;13284;52.748;13.452;2023-06-01T00:11:57;5.23;;;1.83;;
25331;SDS011;13284;52.748;13.452;2023-06-01T00:14:22;1.70;;;1.60;;
25331;SDS011;13284;52.748;13.452;2023-06-01T00:16:48;3.80;;;2.23;;
25331;SDS011;13284;52.748;13.452;2023-06-01T00:19:13;1.90;;;1.70;;
25331;SDS011;13284;52.748;13.452;2023-06-01T00:21:39;2.17;;;1.70;;
25331;SDS011;13284;52.748;13.452;2023-06-01T00:24:06;3.93;;;2.07;;
25331;SDS011;13284;52.748;13.452;2023-06-01T00:26:32;2.07;;;1.73;;
25331;SDS011;13284;52.748;13.452;2023-06-01T00:28:58;2.07;;;1.70;;
25331;SDS011;13284;52.748;13.452;2023-06-01T00:31:24;2.83;;;1.63;;
25331;SDS011;13284;52.748;13.452;2023-06-01T00:33:50;2.40;;;1.70;;
25331;SDS011;13284;52.748;13.452;2023-06-01T00:36:16;1.87;;;1.60;;
25331;SDS011;13284;52.748;13.452;2023-06-01T00:38:42;2.40;;;1.67;;
25331;SDS011;13284;52.748;13.452;2023-06-01T00:41:07;4.40;;;2.60;;
25331;SDS011;13284;52.748;13.452;2023-06-01T00:43:33;2.03;;;1.83;;
25331;SDS011;13284;52.748;13.452;2023-06-01T00:45:58;2.30;;;2.03;;
25331;SDS011;13284;52.748;13.452;2023-06-01T00:48:24;2.00;;;1.80;;
25331;SDS011;13284;52.748;13.452;2023-06-01T00:50:49;2.40;;;1.70;;
25331;SDS011;13284;52.748;13.452;2023-06-01T00:53:16;3.63;;;1.80;;
25331;SDS011;13284;52.748;13.452;2023-06-01T00:55:43;2.80;;;1.83;;
25331;SDS011;13284;52.748;13.452;2023-06-01T00:58:09;2.70;;;2.50;;
25331;SDS011;13284;52.748;13.452;2023-06-01T01:00:37;2.73;;;1.97;;
25331;SDS011;13284;52.748;13.452;2023-06-01T01:03:04;2.53;;;2.07;;
25331;SDS011;13284;52.748;13.452;2023-06-01T01:05:32;1.77;;;1.60;;
25331;SDS011;13284;52.748;13.452;2023-06-01T01:08:00;2.37;;;1.70;;
25331;SDS011;13284;52.748;13.452;2023-06-01T01:10:41;3.57;;;2.83;;
25331;SDS011;13284;52.748;13.452;2023-06-01T01:16:07;2.33;;;2.13;;
25331;SDS011;13284;52.748;13.452;2023-06-01T01:18:57;3.07;;;2.00;;
25331;SDS011;13284;52.748;13.452;2023-06-01T01:21:38;2.30;;;2.10;;
25331;SDS011;13284;52.748;13.452;2023-06-01T01:27:23;2.23;;;1.80;;
25331;SDS011;13284;52.748;13.452;2023-06-01T01:30:03;2.00;;;1.80;;
25331;SDS011;13284;52.748;13.452;2023-06-01T01:32:31;2.23;;;1.90;;
25331;SDS011;13284;52.748;13.452;2023-06-01T01:34:58;2.93;;;2.30;;
25331;SDS011;13284;52.748;13.452;2023-06-01T01:37:25;3.90;;;2.00;;
25331;SDS011;13284;52.748;13.452;2023-06-01T01:39:51;1.83;;;1.73;;
25331;SDS011;13284;52.748;13.452;2023-06-01T01:42:17;4.00;;;2.13;;
25331;SDS011;13284;52.748;13.452;2023-06-01T01:44:42;3.60;;;2.20;;
25331;SDS011;13284;52.748;13.452;2023-06-01T01:49:58;2.03;;;1.83;;
25331;SDS011;13284;52.748;13.452;2023-06-01T01:52:35;2.97;;;2.70;;
25331;SDS011;13284;52.748;13.452;2023-06-01T01:55:04;3.13;;;1.80;;
25331;SDS011;13284;52.748;13.452;2023-06-01T01:57:32;2.70;;;1.93;;
25331;SDS011;13284;52.748;13.452;2023-06-01T01:59:59;3.13;;;2.10;;
25331;SDS011;13284;52.748;13.452;2023-06-01T02:02:26;2.77;;;2.30;;
25331;SDS011;13284;52.748;13.452;2023-06-01T02:04:53;2.90;;;2.30;;
25331;SDS011;13284;52.748;13.452;2023-06-01T02:07:18;4.57;;;2.70;;
25331;SDS011;13284;52.748;13.452;2023-06-01T02:09:44;2.57;;;2.30;;
25331;SDS011;13284;52.748;13.452;2023-06-01T02:12:10;3.87;;;2.70;;
25331;SDS011;13284;52.748;13.452;2023-06-01T02:14:35;3.40;;;2.97;;
25331;SDS011;13284;52.748;13.452;2023-06-01T02:17:01;6.10;;;3.00;;
25331;SDS011;13284;52.748;13.452;2023-06-01T02:19:27;4.37;;;2.73;;
25331;SDS011;13284;52.748;13.452;2023-06-01T02:21:53;4.30;;;2.83;;
25331;SDS011;13284;52.748;13.452;2023-06-01T02:24:19;6.30;;;3.40;;
25331;SDS011;13284;52.748;13.452;2023-06-01T02:26:47;6.00;;;2.80;;
25331;SDS011;13284;52.748;13.452;2023-06-01T02:29:16;3.90;;;3.07;;
25331;SDS011;13284;52.748;13.452;2023-06-01T02:31:44;8.20;;;3.40;;
25331;SDS011;13284;52.748;13.452;2023-06-01T02:34:10;3.90;;;2.90;;
25331;SDS011;13284;52.748;13.452;2023-06-01T02:36:36;5.20;;;3.20;;
25331;SDS011;13284;52.748;13.452;2023-06-01T02:39:01;7.37;;;3.50;;
25331;SDS011;13284;52.748;13.452;2023-06-01T02:41:27;4.13;;;2.83;;
25331;SDS011;13284;52.748;13.452;2023-06-01T02:43:52;3.20;;;2.57;;
25331;SDS011;13284;52.748;13.452;2023-06-01T02:46:18;7.03;;;3.47;;
25331;SDS011;13284;52.748;13.452;2023-06-01T02:48:44;6.77;;;2.80;;
25331;SDS011;13284;52.748;13.452;2023-06-01T02:51:10;4.70;;;3.10;;
25331;SDS011;13284;52.748;13.452;2023-06-01T02:53:38;5.60;;;3.00;;
25331;SDS011;13284;52.748;13.452;2023-06-01T02:56:05;5.13;;;3.30;;
25331;SDS011;13284;52.748;13.452;2023-06-01T02:58:30;4.67;;;3.10;;
25331;SDS011;13284;52.748;13.452;2023-06-01T03:00:56;4.37;;;3.60;;
25331;SDS011;13284;52.748;13.452;2023-06-01T03:03:23;5.50;;;3.60;;
25331;SDS011;13284;52.748;13.452;2023-06-01T03:05:49;4.40;;;3.00;;
25331;SDS011;13284;52.748;13.452;2023-06-01T03:08:14;8.37;;;3.80;;
25331;SDS011;13284;52.748;13.452;2023-06-01T03:10:41;5.33;;;3.80;;
25331;SDS011;13284;52.748;13.452;2023-06-01T03:13:07;3.97;;;3.03;;
25331;SDS011;13284;52.748;13.452;2023-06-01T03:15:33;5.37;;;2.63;;
25331;SDS011;13284;52.748;13.452;2023-06-01T03:17:59;9.47;;;4.20;;
25331;SDS011;13284;52.748;13.452;2023-06-01T03:20:26;4.27;;;3.20;;
25331;SDS011;13284;52.748;13.452;2023-06-01T03:22:52;5.60;;;4.00;;
25331;SDS011;13284;52.748;13.452;2023-06-01T03:25:17;3.83;;;2.93;;
25331;SDS011;13284;52.748;13.452;2023-06-01T03:27:43;9.17;;;4.33;;
25331;SDS011;13284;52.748;13.452;2023-06-01T03:30:09;5.23;;;3.13;;
25331;SDS011;13284;52.748;13.452;2023-06-01T03:32:36;4.87;;;4.00;;
25331;SDS011;13284;52.748;13.452;2023-06-01T03:35:02;4.83;;;3.60;;
25331;SDS011;13284;52.748;13.452;2023-06-01T03:37:29;5.37;;;3.80;;
25331;SDS011;13284;52.748;13.452;2023-06-01T03:39:56;4.73;;;3.50;;
25331;SDS011;13284;52.748;13.452;2023-06-01T03:42:21;7.23;;;3.57;;
25331;SDS011;13284;52.748;13.452;2023-06-01T03:44:47;6.80;;;3.97;;
25331;SDS011;13284;52.748;13.452;2023-06-01T03:47:13;5.60;;;3.50;;
25331;SDS011;13284;52.748;13.452;2023-06-01T03:49:39;6.53;;;3.50;;
25331;SDS011;13284;52.748;13.452;2023-06-01T03:52:05;6.03;;;3.60;;
25331;SDS011;13284;52.748;13.452;2023-06-01T03:54:31;5.53;;;3.13;;
25331;SDS011;13284;52.748;13.452;2023-06-01T03:56:57;6.77;;;3.87;;
25331;SDS011;13284;52.748;13.452;2023-06-01T03:59:22;6.93;;;3.90;;
25331;SDS011;13284;52.748;13.452;2023-06-01T04:01:48;7.67;;;4.00;;
25331;SDS011;13284;52.748;13.452;2023-06-01T04:04:14;5.67;;;3.60;;
25331;SDS011;13284;52.748;13.452;2023-06-01T04:06:41;8.10;;;3.73;;
25331;SDS011;13284;52.748;13.452;2023-06-01T04:09:11;7.43;;;4.50;;
25331;SDS011;13284;52.748;13.452;2023-06-01T04:11:38;5.17;;;3.97;;
25331;SDS011;13284;52.748;13.452;2023-06-01T04:14:04;6.77;;;4.37;;
25331;SDS011;13284;52.748;13.452;2023-06-01T04:16:30;7.13;;;4.53;;
25331;SDS011;13284;52.748;13.452;2023-06-01T04:18:57;9.50;;;5.23;;
25331;SDS011;13284;52.748;13.452;2023-06-01T04:21:29;12.83;;;4.73;;
25331;SDS011;13284;52.748;13.452;2023-06-01T04:23:55;7.03;;;5.00;;
25331;SDS011;13284;52.748;13.452;2023-06-01T04:26:20;8.70;;;4.90;;
25331;SDS011;13284;52.748;13.452;2023-06-01T04:28:47;8.97;;;4.90;;
25331;SDS011;13284;52.748;13.452;2023-06-01T04:31:13;9.60;;;5.23;;
25331;SDS011;13284;52.748;13.452;2023-06-01T04:33:51;7.13;;;5.03;;
25331;SDS011;13284;52.748;13.452;2023-06-01T04:36:21;7.73;;;5.90;;
25331;SDS011;13284;52.748;13.452;2023-06-01T04:38:51;6.10;;;4.87;;
25331;SDS011;13284;52.748;13.452;2023-06-01T04:41:22;8.00;;;5.67;;
25331;SDS011;13284;52.748;13.452;2023-06-01T04:43:48;8.50;;;5.77;;
25331;SDS011;13284;52.748;13.452;2023-06-01T04:46:22;7.33;;;5.97;;
25331;SDS011;13284;52.748;13.452;2023-06-01T04:48:50;9.83;;;5.63;;
25331;SDS011;13284;52.748;13.452;2023-06-01T04:51:17;9.30;;;5.83;;
25331;SDS011;13284;52.748;13.452;2023-06-01T04:53:47;11.27;;;5.67;;
25331;SDS011;13284;52.748;13.452;2023-06-01T04:56:17;10.23;;;5.37;;
25331;SDS011;13284;52.748;13.452;2023-06-01T04:58:44;9.90;;;6.63;;
25331;SDS011;13284;52.748;13.452;2023-06-01T05:01:12;8.83;;;5.27;;
25331;SDS011;13284;52.748;13.452;2023-06-01T05:03:40;9.27;;;5.60;;
25331;SDS011;13284;52.748;13.452;2023-06-01T05:06:10;8.97;;;5.77;;
25331;SDS011;13284;52.748;13.452;2023-06-01T05:08:37;10.17;;;5.60;;
25331;SDS011;13284;52.748;13.452;2023-06-01T05:11:03;8.93;;;6.47;;
25331;SDS011;13284;52.748;13.452;2023-06-01T05:13:29;7.70;;;4.97;;
25331;SDS011;13284;52.748;13.452;2023-06-01T05:15:55;11.43;;;6.40;;
25331;SDS011;13284;52.748;13.452;2023-06-01T05:18:22;7.77;;;5.63;;
25331;SDS011;13284;52.748;13.452;2023-06-01T05:20:49;9.77;;;5.27;;
25331;SDS011;13284;52.748;13.452;2023-06-01T05:23:16;8.17;;;5.37;;
25331;SDS011;13284;52.748;13.452;2023-06-01T05:25:42;9.77;;;5.50;;
25331;SDS011;13284;52.748;13.452;2023-06-01T05:28:09;8.80;;;5.80;;
25331;SDS011;13284;52.748;13.452;2023-06-01T05:30:40;13.20;;;5.63;;
25331;SDS011;13284;52.748;13.452;2023-06-01T05:33:07;8.83;;;6.43;;
25331;SDS011;13284;52.748;13.452;2023-06-01T05:35:34;9.50;;;6.33;;
25331;SDS011;13284;52.748;13.452;2023-06-01T05:38:04;8.80;;;5.70;;
25331;SDS011;13284;52.748;13.452;2023-06-01T05:40:30;10.73;;;6.30;;
25331;SDS011;13284;52.748;13.452;2023-06-01T05:42:55;9.20;;;6.63;;
25331;SDS011;13284;52.748;13.452;2023-06-01T05:45:21;9.83;;;5.93;;
25331;SDS011;13284;52.748;13.452;2023-06-01T05:47:47;10.70;;;5.87;;
25331;SDS011;13284;52.748;13.452;2023-06-01T05:50:14;11.83;;;6.37;;
25331;SDS011;13284;52.748;13.452;2023-06-01T05:52:41;11.77;;;5.70;;
25331;SDS011;13284;52.748;13.452;2023-06-01T05:55:07;10.77;;;5.80;;
25331;SDS011;13284;52.748;13.452;2023-06-01T05:57:34;9.57;;;6.00;;
25331;SDS011;13284;52.748;13.452;2023-06-01T06:00:02;11.73;;;6.07;;
25331;SDS011;13284;52.748;13.452;2023-06-01T06:02:32;5.47;;;4.73;;
25331;SDS011;13284;52.748;13.452;2023-06-01T06:04:58;7.57;;;5.17;;
25331;SDS011;13284;52.748;13.452;2023-06-01T06:07:23;7.10;;;5.33;;
25331;SDS011;13284;52.748;13.452;2023-06-01T06:09:49;10.73;;;6.93;;
25331;SDS011;13284;52.748;13.452;2023-06-01T06:12:15;8.77;;;6.03;;
25331;SDS011;13284;52.748;13.452;2023-06-01T06:14:40;8.20;;;5.23;;
25331;SDS011;13284;52.748;13.452;2023-06-01T06:17:06;9.30;;;5.60;;
25331;SDS011;13284;52.748;13.452;2023-06-01T06:19:32;7.43;;;5.80;;
25331;SDS011;13284;52.748;13.452;2023-06-01T06:21:59;9.00;;;5.33;;
25331;SDS011;13284;52.748;13.452;2023-06-01T06:24:25;7.47;;;4.63;;
25331;SDS011;13284;52.748;13.452;2023-06-01T06:26:50;9.17;;;4.87;;
25331;SDS011;13284;52.748;13.452;2023-06-01T06:29:16;9.90;;;4.80;;
25331;SDS011;13284;52.748;13.452;2023-06-01T06:31:42;9.73;;;5.20;;
25331;SDS011;13284;52.748;13.452;2023-06-01T06:34:11;12.73;;;6.57;;
25331;SDS011;13284;52.748;13.452;2023-06-01T06:36:47;6.93;;;5.30;;
25331;SDS011;13284;52.748;13.452;2023-06-01T06:39:15;9.20;;;6.47;;
25331;SDS011;13284;52.748;13.452;2023-06-01T06:41:41;8.40;;;5.40;;
25331;SDS011;13284;52.748;13.452;2023-06-01T06:44:06;8.93;;;4.67;;
25331;SDS011;13284;52.748;13.452;2023-06-01T06:46:32;10.47;;;4.83;;
25331;SDS011;13284;52.748;13.452;2023-06-01T06:49:03;7.23;;;5.47;;
25331;SDS011;13284;52.748;13.452;2023-06-01T06:51:32;6.40;;;4.57;;
25331;SDS011;13284;52.748;13.452;2023-06-01T06:53:57;8.80;;;4.50;;
25331;SDS011;13284;52.748;13.452;2023-06-01T06:56:23;7.43;;;4.20;;
25331;SDS011;13284;52.748;13.452;2023-06-01T06:58:48;8.70;;;4.33;;
25331;SDS011;13284;52.748;13.452;2023-06-01T07:01:14;9.70;;;4.53;;
25331;SDS011;13284;52.748;13.452;2023-06-01T07:03:40;8.60;;;4.10;;
25331;SDS011;13284;52.748;13.452;2023-06-01T07:06:05;8.40;;;5.37;;
25331;SDS011;13284;52.748;13.452;2023-06-01T07:08:34;9.60;;;4.90;;
25331;SDS011;13284;52.748;13.452;2023-06-01T07:10:59;9.00;;;5.10;;
25331;SDS011;13284;52.748;13.452;2023-06-01T07:13:27;10.20;;;5.03;;
25331;SDS011;13284;52.748;13.452;2023-06-01T07:15:53;8.23;;;5.63;;
25331;SDS011;13284;52.748;13.452;2023-06-01T07:18:21;8.30;;;5.30;;
25331;SDS011;13284;52.748;13.452;2023-06-01T07:20:49;7.93;;;6.13;;
25331;SDS011;13284;52.748;13.452;2023-06-01T07:23:15;6.40;;;4.50;;
25331;SDS011;13284;52.748;13.452;2023-06-01T07:25:41;6.80;;;4.50;;
25331;SDS011;13284;52.748;13.452;2023-06-01T07:28:07;10.77;;;4.27;;
25331;SDS011;13284;52.748;13.452;2023-06-01T07:30:33;8.57;;;3.77;;
25331;SDS011;13284;52.748;13.452;2023-06-01T07:32:59;5.50;;;4.07;;
25331;SDS011;13284;52.748;13.452;2023-06-01T07:35:27;5.00;;;3.93;;
25331;SDS011;13284;52.748;13.452;2023-06-01T07:37:53;6.20;;;3.87;;
25331;SDS011;13284;52.748;13.452;2023-06-01T07:40:19;7.53;;;4.27;;
25331;SDS011;13284;52.748;13.452;2023-06-01T07:42:44;9.60;;;5.00;;
25331;SDS011;13284;52.748;13.452;2023-06-01T07:45:10;8.50;;;3.97;;
25331;SDS011;13284;52.748;13.452;2023-06-01T07:47:36;10.43;;;4.30;;
25331;SDS011;13284;52.748;13.452;2023-06-01T07:50:01;7.00;;;3.87;;
25331;SDS011;13284;52.748;13.452;2023-06-01T07:52:27;6.43;;;4.00;;
25331;SDS011;13284;52.748;13.452;2023-06-01T07:54:53;6.33;;;3.83;;
25331;SDS011;13284;52.748;13.452;2023-06-01T07:57:18;7.27;;;4.30;;
25331;SDS011;13284;52.748;13.452;2023-06-01T07:59:44;9.17;;;4.00;;
25331;SDS011;13284;52.748;13.452;2023-06-01T08:02:11;11.80;;;4.73;;
25331;SDS011;13284;52.748;13.452;2023-06-01T08:04:38;5.53;;;3.47;;
25331;SDS011;13284;52.748;13.452;2023-06-01T08:07:04;7.97;;;4.33;;
25331;SDS011;13284;52.748;13.452;2023-06-01T08:09:32;8.10;;;3.90;;
25331;SDS011;13284;52.748;13.452;2023-06-01T08:12:02;24.10;;;7.53;;
25331;SDS011;13284;52.748;13.452;2023-06-01T08:14:28;8.10;;;3.60;;
25331;SDS011;13284;52.748;13.452;2023-06-01T08:16:53;7.50;;;3.43;;
25331;SDS011;13284;52.748;13.452;2023-06-01T08:19:19;8.13;;;4.00;;
25331;SDS011;13284;52.748;13.452;2023-06-01T08:21:47;4.83;;;3.30;;
25331;SDS011;13284;52.748;13.452;2023-06-01T08:24:12;6.70;;;4.07;;
25331;SDS011;13284;52.748;13.452;2023-06-01T08:26:38;7.73;;;3.80;;
25331;SDS011;13284;52.748;13.452;2023-06-01T08:29:04;4.60;;;3.60;;
25331;SDS011;13284;52.748;13.452;2023-06-01T08:31:30;6.07;;;3.43;;
25331;SDS011;13284;52.748;13.452;2023-06-01T08:33:55;3.23;;;2.93;;
25331;SDS011;13284;52.748;13.452;2023-06-01T08:36:21;7.10;;;3.63;;
25331;SDS011;13284;52.748;13.452;2023-06-01T08:38:48;5.00;;;3.90;;
25331;SDS011;13284;52.748;13.452;2023-06-01T08:41:20;6.33;;;3.47;;
25331;SDS011;13284;52.748;13.452;2023-06-01T08:43:50;4.83;;;3.67;;
25331;SDS011;13284;52.748;13.452;2023-06-01T08:46:20;6.20;;;4.50;;
25331;SDS011;13284;52.748;13.452;2023-06-01T08:48:48;6.10;;;4.53;;
25331;SDS011;13284;52.748;13.452;2023-06-01T08:51:17;5.23;;;3.40;;
25331;SDS011;13284;52.748;13.452;2023-06-01T08:53:43;6.73;;;4.80;;
25331;SDS011;13284;52.748;13.452;2023-06-01T08:56:10;5.07;;;3.67;;
25331;SDS011;13284;52.748;13.452;2023-06-01T08:58:36;8.07;;;4.57;;
25331;SDS011;13284;52.748;13.452;2023-06-01T09:01:02;7.70;;;3.37;;
25331;SDS011;13284;52.748;13.452;2023-06-01T09:03:30;10.63;;;4.27;;
25331;SDS011;13284;52.748;13.452;2023-06-01T09:05:55;6.00;;;3.40;;
25331;SDS011;13284;52.748;13.452;2023-06-01T09:08:21;9.67;;;3.70;;
25331;SDS011;13284;52.748;13.452;2023-06-01T09:10:47;7.40;;;3.67;;
25331;SDS011;13284;52.748;13.452;2023-06-01T09:13:13;4.80;;;3.40;;
25331;SDS011;13284;52.748;13.452;2023-06-01T09:15:55;4.37;;;3.57;;
25331;SDS011;13284;52.748;13.452;2023-06-01T09:18:21;5.93;;;3.77;;
25331;SDS011;13284;52.748;13.452;2023-06-01T09:20:46;6.07;;;3.27;;
25331;SDS011;13284;52.748;13.452;2023-06-01T09:23:22;6.53;;;3.20;;
25331;SDS011;13284;52.748;13.452;2023-06-01T09:25:48;5.30;;;3.30;;
25331;SDS011;13284;52.748;13.452;2023-06-01T09:34:01;3.83;;;3.40;;
25331;SDS011;13284;52.748;13.452;2023-06-01T09:36:29;5.43;;;3.40;;
25331;SDS011;13284;52.748;13.452;2023-06-01T09:39:05;6.47;;;2.87;;
25331;SDS011;13284;52.748;13.452;2023-06-01T09:44:22;4.87;;;3.20;;
25331;SDS011;13284;52.748;13.452;2023-06-01T09:46:49;5.33;;;3.23;;
25331;SDS011;13284;52.748;13.452;2023-06-01T09:49:21;3.90;;;3.20;;
25331;SDS011;13284;52.748;13.452;2023-06-01T09:51:52;6.23;;;3.43;;
25331;SDS011;13284;52.748;13.452;2023-06-01T09:54:22;5.00;;;2.87;;
25331;SDS011;13284;52.748;13.452;2023-06-01T09:56:52;4.83;;;3.60;;
25331;SDS011;13284;52.748;13.452;2023-06-01T09:59:20;5.03;;;3.40;;
25331;SDS011;13284;52.748;13.452;2023-06-01T10:01:49;8.80;;;5.10;;
25331;SDS011;13284;52.748;13.452;2023-06-01T10:04:26;7.33;;;3.43;;
25331;SDS011;13284;52.748;13.452;2023-06-01T10:06:55;3.93;;;3.53;;
25331;SDS011;13284;52.748;13.452;2023-06-01T10:09:22;6.57;;;4.53;;
25331;SDS011;13284;52.748;13.452;2023-06-01T10:11:52;5.33;;;3.27;;
25331;SDS011;13284;52.748;13.452;2023-06-01T10:14:19;6.43;;;2.90;;
25331;SDS011;13284;52.748;13.452;2023-06-01T10:16:47;5.37;;;3.80;;
25331;SDS011;13284;52.748;13.452;2023-06-01T10:19:17;4.73;;;3.60;;
25331;SDS011;13284;52.748;13.452;2023-06-01T10:21:44;5.43;;;3.37;;
25331;SDS011;13284;52.748;13.452;2023-06-01T10:24:13;4.43;;;3.90;;
25331;SDS011;13284;52.748;13.452;2023-06-01T10:29:51;3.37;;;2.77;;
25331;SDS011;13284;52.748;13.452;2023-06-01T10:35:09;3.73;;;3.00;;
25331;SDS011;13284;52.748;13.452;2023-06-01T10:40:38;4.23;;;3.33;;
25331;SDS011;13284;52.748;13.452;2023-06-01T10:43:05;5.53;;;3.70;;
25331;SDS011;13284;52.748;13.452;2023-06-01T10:47:58;6.63;;;3.43;;
25331;SDS011;13284;52.748;13.452;2023-06-01T10:50:24;5.80;;;3.70;;
25331;SDS011;13284;52.748;13.452;2023-06-01T10:52:50;3.97;;;3.50;;
25331;SDS011;13284;52.748;13.452;2023-06-01T10:57:45;3.97;;;3.50;;
25331;SDS011;13284;52.748;13.452;2023-06-01T11:02:56;3.70;;;3.40;;
25331;SDS011;13284;52.748;13.452;2023-06-01T11:07:59;7.13;;;4.00;;
25331;SDS011;13284;52.748;13.452;2023-06-01T11:13:15;5.93;;;3.70;;
25331;SDS011;13284;52.748;13.452;2023-06-01T11:18:53;4.33;;;3.33;;
25331;SDS011;13284;52.748;13.452;2023-06-01T11:21:25;4.40;;;4.00;;
25331;SDS011;13284;52.748;13.452;2023-06-01T11:24:17;7.67;;;4.37;;
25331;SDS011;13284;52.748;13.452;2023-06-01T11:26:44;4.80;;;3.83;;
25331;SDS011;13284;52.748;13.452;2023-06-01T11:31:40;4.30;;;3.73;;
25331;SDS011;13284;52.748;13.452;2023-06-01T11:34:06;5.07;;;4.53;;
25331;SDS011;13284;52.748;13.452;2023-06-01T11:36:36;7.60;;;3.77;;
25331;SDS011;13284;52.748;13.452;2023-06-01T11:39:02;5.13;;;4.30;;
25331;SDS011;13284;52.748;13.452;2023-06-01T11:41:31;5.10;;;4.47;;
25331;SDS011;13284;52.748;13.452;2023-06-01T11:43:56;7.17;;;4.40;;
25331;SDS011;13284;52.748;13.452;2023-06-01T11:46:22;4.70;;;3.80;;
25331;SDS011;13284;52.748;13.452;2023-06-01T11:49:00;42.47;;;8.33;;
25331;SDS011;13284;52.748;13.452;2023-06-01T11:51:36;4.90;;;3.87;;
25331;SDS011;13284;52.748;13.452;2023-06-01T11:54:03;8.97;;;4.20;;
25331;SDS011;13284;52.748;13.452;2023-06-01T11:56:31;4.43;;;4.00;;
25331;SDS011;13284;52.748;13.452;2023-06-01T11:58:59;5.63;;;4.10;;
25331;SDS011;13284;52.748;13.452;2023-06-01T12:01:25;7.10;;;4.53;;
25331;SDS011;13284;52.748;13.452;2023-06-01T12:03:52;5.57;;;4.00;;
25331;SDS011;13284;52.748;13.452;2023-06-01T12:06:22;7.00;;;4.77;;
25331;SDS011;13284;52.748;13.452;2023-06-01T12:08:50;4.60;;;4.20;;
25331;SDS011;13284;52.748;13.452;2023-06-01T12:11:21;5.13;;;4.07;;
25331;SDS011;13284;52.748;13.452;2023-06-01T12:13:51;5.60;;;3.90;;
25331;SDS011;13284;52.748;13.452;2023-06-01T12:16:21;6.27;;;4.47;;
25331;SDS011;13284;52.748;13.452;2023-06-01T12:18:47;5.03;;;4.53;;
25331;SDS011;13284;52.748;13.452;2023-06-01T12:21:13;5.10;;;4.50;;
25331;SDS011;13284;52.748;13.452;2023-06-01T12:23:41;6.00;;;5.50;;
25331;SDS011;13284;52.748;13.452;2023-06-01T12:26:15;9.23;;;5.10;;
25331;SDS011;13284;52.748;13.452;2023-06-01T12:28:47;6.27;;;4.43;;
25331;SDS011;13284;52.748;13.452;2023-06-01T12:31:18;8.10;;;4.60;;
25331;SDS011;13284;52.748;13.452;2023-06-01T12:33:44;6.33;;;4.80;;
25331;SDS011;13284;52.748;13.452;2023-06-01T12:36:10;7.53;;;4.40;;
25331;SDS011;13284;52.748;13.452;2023-06-01T12:38:52;4.60;;;4.00;;
25331;SDS011;13284;52.748;13.452;2023-06-01T12:41:18;4.87;;;4.37;;
25331;SDS011;13284;52.748;13.452;2023-06-01T12:43:45;4.60;;;4.20;;
25331;SDS011;13284;52.748;13.452;2023-06-01T12:46:20;7.80;;;4.90;;
25331;SDS011;13284;52.748;13.452;2023-06-01T12:48:48;5.73;;;4.60;;
25331;SDS011;13284;52.748;13.452;2023-06-01T12:51:18;6.67;;;5.17;;
25331;SDS011;13284;52.748;13.452;2023-06-01T12:53:44;6.73;;;4.93;;
25331;SDS011;13284;52.748;13.452;2023-06-01T12:56:10;7.30;;;4.83;;
25331;SDS011;13284;52.748;13.452;2023-06-01T12:58:36;6.33;;;5.60;;
25331;SDS011;13284;52.748;13.452;2023-06-01T13:01:02;5.63;;;4.70;;
25331;SDS011;13284;52.748;13.452;2023-06-01T13:03:28;6.40;;;5.20;;
25331;SDS011;13284;52.748;13.452;2023-06-01T13:05:54;6.03;;;4.40;;
25331;SDS011;13284;52.748;13.452;2023-06-01T13:08:20;5.57;;;5.07;;
25331;SDS011;13284;52.748;13.452;2023-06-01T13:10:47;6.70;;;5.40;;
25331;SDS011;13284;52.748;13.452;2023-06-01T13:13:13;7.83;;;4.70;;
25331;SDS011;13284;52.748;13.452;2023-06-01T13:15:44;4.47;;;4.07;;
25331;SDS011;13284;52.748;13.452;2023-06-01T13:18:10;6.60;;;4.90;;
25331;SDS011;13284;52.748;13.452;2023-06-01T13:20:37;6.70;;;5.50;;
25331;SDS011;13284;52.748;13.452;2023-06-01T13:23:04;5.03;;;4.63;;
25331;SDS011;13284;52.748;13.452;2023-06-01T13:25:30;6.93;;;5.90;;
25331;SDS011;13284;52.748;13.452;2023-06-01T13:27:58;5.63;;;4.60;;
25331;SDS011;13284;52.748;13.452;2023-06-01T13:30:24;7.30;;;4.80;;
25331;SDS011;13284;52.748;13.452;2023-06-01T13:32:49;6.37;;;4.90;;
25331;SDS011;13284;52.748;13.452;2023-06-01T13:35:15;6.83;;;5.20;;
25331;SDS011;13284;52.748;13.452;2023-06-01T13:37:43;6.00;;;5.20;;
25331;SDS011;13284;52.748;13.452;2023-06-01T13:40:09;7.93;;;6.37;;
25331;SDS011;13284;52.748;13.452;2023-06-01T13:42:35;6.80;;;6.20;;
25331;SDS011;13284;52.748;13.452;2023-06-01T13:45:01;22.73;;;7.63;;
25331;SDS011;13284;52.748;13.452;2023-06-01T13:47:29;7.47;;;5.97;;
25331;SDS011;13284;52.748;13.452;2023-06-01T13:49:55;9.53;;;6.10;;
25331;SDS011;13284;52.748;13.452;2023-06-01T13:52:20;10.77;;;5.33;;
25331;SDS011;13284;52.748;13.452;2023-06-01T13:54:48;5.53;;;4.90;;
25331;SDS011;13284;52.748;13.452;2023-06-01T13:57:14;7.93;;;5.63;;
25331;SDS011;13284;52.748;13.452;2023-06-01T13:59:39;5.60;;;4.77;;
25331;SDS011;13284;52.748;13.452;2023-06-01T14:02:05;8.60;;;5.07;;
25331;SDS011;13284;52.748;13.452;2023-06-01T14:04:32;6.17;;;5.47;;
25331;SDS011;13284;52.748;13.452;2023-06-01T14:06:57;7.40;;;5.50;;
25331;SDS011;13284;52.748;13.452;2023-06-01T14:09:23;6.03;;;5.47;;
25331;SDS011;13284;52.748;13.452;2023-06-01T14:11:49;7.73;;;5.63;;
25331;SDS011;13284;52.748;13.452;2023-06-01T14:14:15;5.67;;;5.07;;
25331;SDS011;13284;52.748;13.452;2023-06-01T14:16:41;5.83;;;5.23;;
25331;SDS011;13284;52.748;13.452;2023-06-01T14:19:06;6.40;;;5.20;;
25331;SDS011;13284;52.748;13.452;2023-06-01T14:21:32;7.53;;;5.10;;
25331;SDS011;13284;52.748;13.452;2023-06-01T14:23:59;8.30;;;5.83;;
25331;SDS011;13284;52.748;13.452;2023-06-01T14:26:25;6.67;;;5.10;;
25331;SDS011;13284;52.748;13.452;2023-06-01T14:28:52;6.40;;;5.60;;
25331;SDS011;13284;52.748;13.452;2023-06-01T14:31:17;6.80;;;5.70;;
25331;SDS011;13284;52.748;13.452;2023-06-01T14:33:44;5.93;;;5.10;;
25331;SDS011;13284;52.748;13.452;2023-06-01T14:36:10;6.50;;;5.13;;
25331;SDS011;13284;52.748;13.452;2023-06-01T14:38:35;5.20;;;4.67;;
25331;SDS011;13284;52.748;13.452;2023-06-01T14:41:01;7.10;;;4.27;;
25331;SDS011;13284;52.748;13.452;2023-06-01T14:43:27;9.03;;;5.10;;
25331;SDS011;13284;52.748;13.452;2023-06-01T14:45:54;6.10;;;5.50;;
25331;SDS011;13284;52.748;13.452;2023-06-01T14:48:20;4.77;;;4.37;;
25331;SDS011;13284;52.748;13.452;2023-06-01T14:50:46;6.60;;;5.60;;
25331;SDS011;13284;52.748;13.452;2023-06-01T14:53:11;5.70;;;4.83;;
25331;SDS011;13284;52.748;13.452;2023-06-01T14:55:38;6.87;;;4.57;;
25331;SDS011;13284;52.748;13.452;2023-06-01T14:58:05;6.43;;;4.70;;
25331;SDS011;13284;52.748;13.452;2023-06-01T15:00:32;4.77;;;4.20;;
25331;SDS011;13284;52.748;13.452;2023-06-01T15:02:57;6.20;;;4.73;;
25331;SDS011;13284;52.748;13.452;2023-06-01T15:05:26;5.17;;;4.43;;
25331;SDS011;13284;52.748;13.452;2023-06-01T15:07:51;5.40;;;4.50;;
25331;SDS011;13284;52.748;13.452;2023-06-01T15:10:17;5.17;;;4.73;;
25331;SDS011;13284;52.748;13.452;2023-06-01T15:12:42;5.40;;;4.90;;
25331;SDS011;13284;52.748;13.452;2023-06-01T15:15:08;5.40;;;4.30;;
25331;SDS011;13284;52.748;13.452;2023-06-01T15:17:34;5.40;;;4.70;;
25331;SDS011;13284;52.748;13.452;2023-06-01T15:19:59;7.60;;;4.50;;